Time;durP1;ratioP1;P1;durP2;ratioP2;P2;SDS_P1;SDS_P2;PMS_P1;PMS_P2;Temp;Humidity;BMP_temperature;BMP_pressure;BME280_temperature;BME280_humidity;BME280_pressure;Samples;Min_cycle;Max_cycle;Signal;HPM_P1;HPM_P2
2022/08/27 00:00:31;;;;;;;17.13;10.02;;;;;;;;;;5061112;28;20204;-54
2022/08/27 00:03:05;;;;;;;21.42;9.80;;;;;;;;;;5061130;28;20617;-47
2022/08/27 00:05:32;;;;;;;20.33;9.90;;;;;;;;;;5060775;28;20208;-53
2022/08/27 00:07:59;;;;;;;19.30;10.30;;;;;;;;;;5061098;28;20196;-50
2022/08/27 00:10:26;;;;;;;18.67;10.40;;;;;;;;;;5061113;28;20321;-52
2022/08/27 00:12:55;;;;;;;18.83;10.13;;;;;;;;;;5061284;28;20199;-50
2022/08/27 00:15:23;;;;;;;16.63;9.65;;;;;;;;;;5060863;28;20200;-54
2022/08/27 00:17:50;;;;;;;23.00;10.75;;;;;;;;;;5060904;28;20204;-52
2022/08/27 00:20:19;;;;;;;18.23;10.23;;;;;;;;;;5060970;28;20204;-52
2022/08/27 00:22:46;;;;;;;17.88;9.30;;;;;;;;;;5060877;28;20204;-52
2022/08/27 00:25:13;;;;;;;18.17;10.63;;;;;;;;;;5060375;28;20270;-52
2022/08/27 00:27:40;;;;;;;21.00;9.85;;;;;;;;;;5056973;28;20207;-49
2022/08/27 00:30:11;;;;;;;16.73;10.73;;;;;;;;;;5057713;28;20250;-50
2022/08/27 00:32:39;;;;;;;19.13;11.40;;;;;;;;;;5057882;28;20509;-48
2022/08/27 00:35:07;;;;;;;16.88;10.95;;;;;;;;;;5057719;28;20204;-54
2022/08/27 00:37:34;;;;;;;17.15;10.32;;;;;;;;;;5057600;28;20223;-49
2022/08/27 00:40:03;;;;;;;17.92;11.40;;;;;;;;;;5057752;28;20210;-55
2022/08/27 00:42:30;;;;;;;19.95;10.65;;;;;;;;;;5057487;28;20734;-55
2022/08/27 00:44:58;;;;;;;20.23;10.45;;;;;;;;;;5057354;28;20278;-49
2022/08/27 00:47:27;;;;;;;20.50;9.93;;;;;;;;;;5057355;28;20212;-55
2022/08/27 00:50:05;;;;;;;19.27;10.75;;;;;;;;;;5039864;28;20211;-51
2022/08/27 00:52:35;;;;;;;21.08;10.40;;;;;;;;;;5039931;28;20208;-56
2022/08/27 00:55:10;;;;;;;22.88;10.75;;;;;;;;;;5056905;28;20208;-55
2022/08/27 00:57:39;;;;;;;17.00;9.93;;;;;;;;;;5039877;28;20200;-55
2022/08/27 01:00:11;;;;;;;18.33;11.63;;;;;;;;;;5040486;28;20286;-51
2022/08/27 01:02:37;;;;;;;20.65;11.23;;;;;;;;;;5057235;28;20203;-52
2022/08/27 01:05:09;;;;;;;20.23;12.13;;;;;;;;;;5057020;28;20204;-48
2022/08/27 01:07:39;;;;;;;18.27;11.40;;;;;;;;;;5039680;28;20223;-49
2022/08/27 01:10:10;;;;;;;16.98;10.48;;;;;;;;;;5056928;28;20200;-55
2022/08/27 01:12:37;;;;;;;20.10;10.98;;;;;;;;;;5006551;28;20208;-55
2022/08/27 01:15:08;;;;;;;18.73;10.70;;;;;;;;;;5056533;28;20196;-55
2022/08/27 01:17:39;;;;;;;22.20;11.43;;;;;;;;;;5056446;28;20663;-55
2022/08/27 01:20:12;;;;;;;19.80;11.10;;;;;;;;;;5039482;28;20279;-49
2022/08/27 01:23:05;;;;;;;19.50;11.10;;;;;;;;;;5056657;28;20212;-53
2022/08/27 01:25:32;;;;;;;12.73;10.13;;;;;;;;;;5056827;28;20211;-49
2022/08/27 01:28:01;;;;;;;15.40;10.15;;;;;;;;;;5056307;28;20520;-49
2022/08/27 01:30:30;;;;;;;22.05;12.20;;;;;;;;;;5039314;28;20291;-51
2022/08/27 01:32:56;;;;;;;18.25;12.18;;;;;;;;;;5056158;28;20223;-48
2022/08/27 01:35:24;;;;;;;17.83;11.45;;;;;;;;;;5056346;28;20213;-53
2022/08/27 01:37:53;;;;;;;21.02;10.95;;;;;;;;;;5055922;28;20224;-49
2022/08/27 01:40:23;;;;;;;19.25;11.40;;;;;;;;;;5056894;28;20184;-52
2022/08/27 01:42:53;;;;;;;19.15;11.07;;;;;;;;;;5055843;28;20577;-49
2022/08/27 01:45:26;;;;;;;24.77;9.77;;;;;;;;;;5056052;28;20708;-52
2022/08/27 01:47:54;;;;;;;17.13;10.45;;;;;;;;;;5056386;28;20208;-51
2022/08/27 01:50:27;;;;;;;19.00;11.05;;;;;;;;;;5056206;28;20204;-51
2022/08/27 01:52:55;;;;;;;15.68;10.57;;;;;;;;;;5056220;28;20196;-51
2022/08/27 01:55:24;;;;;;;15.32;10.45;;;;;;;;;;5056192;28;20654;-49
2022/08/27 01:57:53;;;;;;;15.63;10.48;;;;;;;;;;5038415;28;20251;-52
2022/08/27 02:00:24;;;;;;;14.77;10.63;;;;;;;;;;5056369;28;20203;-49
2022/08/27 02:02:51;;;;;;;17.70;10.73;;;;;;;;;;5055972;28;20210;-50
2022/08/27 02:05:18;;;;;;;15.65;11.52;;;;;;;;;;5055941;28;20212;-50
2022/08/27 02:07:45;;;;;;;17.30;11.30;;;;;;;;;;5055845;28;20203;-51
2022/08/27 02:10:16;;;;;;;22.13;10.10;;;;;;;;;;5055599;28;20200;-50
2022/08/27 02:12:43;;;;;;;17.95;10.65;;;;;;;;;;5055990;28;20204;-50
2022/08/27 02:15:11;;;;;;;13.57;9.63;;;;;;;;;;5055703;28;20199;-51
2022/08/27 02:17:38;;;;;;;17.05;10.80;;;;;;;;;;5055547;28;20231;-49
2022/08/27 02:20:08;;;;;;;13.10;9.32;;;;;;;;;;5055608;28;20200;-48
2022/08/27 02:22:36;;;;;;;15.88;10.48;;;;;;;;;;5038273;28;20196;-51
2022/08/27 02:25:05;;;;;;;18.90;10.00;;;;;;;;;;5055025;28;20530;-56
2022/08/27 02:27:36;;;;;;;15.57;9.73;;;;;;;;;;5055259;28;20640;-53
2022/08/27 02:30:04;;;;;;;16.38;9.50;;;;;;;;;;5055353;28;20216;-55
2022/08/27 02:32:31;;;;;;;15.55;10.73;;;;;;;;;;5055060;28;20199;-52
2022/08/27 02:34:59;;;;;;;17.35;11.15;;;;;;;;;;5054987;28;20644;-53
2022/08/27 02:37:27;;;;;;;19.42;10.43;;;;;;;;;;5055136;28;20235;-48
2022/08/27 02:39:54;;;;;;;13.60;10.20;;;;;;;;;;5055225;28;20204;-51
2022/08/27 02:42:21;;;;;;;16.52;10.65;;;;;;;;;;5055191;28;20239;-51
2022/08/27 02:44:48;;;;;;;19.08;11.48;;;;;;;;;;5055198;28;20203;-51
2022/08/27 02:47:15;;;;;;;18.52;10.55;;;;;;;;;;5055002;28;20203;-52
2022/08/27 02:49:43;;;;;;;15.73;10.15;;;;;;;;;;5054602;28;20211;-55
2022/08/27 02:52:10;;;;;;;15.38;8.18;;;;;;;;;;5055016;28;20203;-49
2022/08/27 02:54:37;;;;;;;11.07;7.47;;;;;;;;;;5055126;28;20207;-50
2022/08/27 02:57:05;;;;;;;22.13;10.73;;;;;;;;;;5054993;28;20560;-50
2022/08/27 02:59:32;;;;;;;18.58;12.45;;;;;;;;;;5055001;28;20196;-48
2022/08/27 03:01:58;;;;;;;13.80;9.35;;;;;;;;;;5054682;28;20242;-48
2022/08/27 03:04:28;;;;;;;19.20;10.07;;;;;;;;;;5054681;28;20526;-49
2022/08/27 03:06:55;;;;;;;16.00;10.50;;;;;;;;;;5054293;28;20215;-53
2022/08/27 03:09:22;;;;;;;15.25;11.30;;;;;;;;;;5054594;28;20200;-47
2022/08/27 03:11:49;;;;;;;18.08;10.18;;;;;;;;;;5054734;28;20200;-50
2022/08/27 03:14:16;;;;;;;13.02;10.25;;;;;;;;;;5054410;28;20200;-49
2022/08/27 03:16:43;;;;;;;18.15;12.02;;;;;;;;;;5054285;28;20234;-50
2022/08/27 03:19:10;;;;;;;17.25;12.20;;;;;;;;;;5054237;28;20200;-51
2022/08/27 03:21:37;;;;;;;17.50;10.63;;;;;;;;;;5054132;28;20691;-54
2022/08/27 03:24:04;;;;;;;19.75;11.50;;;;;;;;;;5054555;28;20200;-55
2022/08/27 03:26:38;;;;;;;12.93;10.65;;;;;;;;;;5054511;28;20211;-53
2022/08/27 03:29:06;;;;;;;14.82;9.52;;;;;;;;;;5054516;28;20204;-53
2022/08/27 03:31:33;;;;;;;10.70;8.68;;;;;;;;;;5054213;28;20299;-50
2022/08/27 03:34:05;;;;;;;15.30;10.15;;;;;;;;;;5054484;28;20208;-52
2022/08/27 03:36:32;;;;;;;18.75;11.13;;;;;;;;;;5054372;28;20216;-48
2022/08/27 03:38:59;;;;;;;14.48;10.23;;;;;;;;;;5054430;28;20211;-52
2022/08/27 03:41:26;;;;;;;20.10;11.10;;;;;;;;;;5054021;28;20247;-49
2022/08/27 03:44:13;;;;;;;16.63;11.38;;;;;;;;;;5053960;28;20204;-50
2022/08/27 03:46:49;;;;;;;17.52;11.10;;;;;;;;;;5054335;28;20208;-50
2022/08/27 03:49:18;;;;;;;18.75;13.10;;;;;;;;;;5054281;28;20204;-53
2022/08/27 03:51:46;;;;;;;25.70;15.90;;;;;;;;;;5054162;28;20227;-56
2022/08/27 03:54:14;;;;;;;21.63;15.00;;;;;;;;;;5054266;28;20204;-50
2022/08/27 03:56:41;;;;;;;17.33;9.50;;;;;;;;;;5053771;28;20679;-50
2022/08/27 03:59:08;;;;;;;16.60;9.95;;;;;;;;;;5054196;28;20287;-49
2022/08/27 04:01:35;;;;;;;12.13;7.68;;;;;;;;;;5055394;28;20596;-51
2022/08/27 04:04:02;;;;;;;12.48;7.97;;;;;;;;;;5058009;28;20196;-49
2022/08/27 04:06:29;;;;;;;15.55;8.93;;;;;;;;;;5058065;28;20538;-48
2022/08/27 04:08:57;;;;;;;16.60;9.40;;;;;;;;;;5057779;28;20200;-48
2022/08/27 04:11:24;;;;;;;14.40;8.75;;;;;;;;;;5056650;28;20211;-56
2022/08/27 04:13:50;;;;;;;14.75;9.57;;;;;;;;;;5056434;28;20208;-54
2022/08/27 04:16:18;;;;;;;14.25;9.63;;;;;;;;;;5048354;28;20196;-51
2022/08/27 04:18:45;;;;;;;16.63;12.95;;;;;;;;;;5047784;28;20279;-55
2022/08/27 04:21:13;;;;;;;23.25;15.27;;;;;;;;;;5050705;28;20326;-57
2022/08/27 04:23:41;;;;;;;20.55;12.65;;;;;;;;;;5050394;28;20200;-53
2022/08/27 04:26:09;;;;;;;18.27;11.02;;;;;;;;;;5048877;28;20295;-50
2022/08/27 04:28:37;;;;;;;30.35;10.57;;;;;;;;;;5047205;28;20258;-49
2022/08/27 04:31:06;;;;;;;28.05;10.77;;;;;;;;;;5049836;28;20207;-50
2022/08/27 04:33:43;;;;;;;16.50;9.45;;;;;;;;;;5048508;28;20201;-55
2022/08/27 04:36:18;;;;;;;23.05;10.05;;;;;;;;;;5047103;28;20647;-54
2022/08/27 04:38:45;;;;;;;20.98;9.80;;;;;;;;;;5051324;28;20551;-50
2022/08/27 04:41:18;;;;;;;21.45;9.70;;;;;;;;;;5046782;28;20204;-52
2022/08/27 04:43:55;;;;;;;17.90;9.95;;;;;;;;;;5046084;28;20204;-53
2022/08/27 04:46:24;;;;;;;21.23;11.07;;;;;;;;;;5045064;28;20192;-53
2022/08/27 04:48:52;;;;;;;18.45;11.13;;;;;;;;;;5045219;28;20540;-53
2022/08/27 04:51:19;;;;;;;18.70;10.90;;;;;;;;;;5045036;28;20193;-51
2022/08/27 04:53:48;;;;;;;15.38;9.68;;;;;;;;;;5028650;28;20193;-56
2022/08/27 04:56:20;;;;;;;20.17;10.95;;;;;;;;;;5046822;28;20196;-49
2022/08/27 04:58:48;;;;;;;18.55;10.57;;;;;;;;;;5045664;28;20228;-53
2022/08/27 05:01:17;;;;;;;15.65;10.55;;;;;;;;;;5044320;28;20209;-54
2022/08/27 05:03:44;;;;;;;19.15;10.90;;;;;;;;;;5049476;28;20257;-55
2022/08/27 05:06:12;;;;;;;14.43;10.98;;;;;;;;;;5052572;28;20294;-54
2022/08/27 05:08:39;;;;;;;19.77;10.73;;;;;;;;;;5053749;28;20213;-49
2022/08/27 05:11:09;;;;;;;15.40;9.85;;;;;;;;;;5037538;28;20629;-49
2022/08/27 05:13:36;;;;;;;16.17;9.85;;;;;;;;;;5036102;28;20205;-53
2022/08/27 05:16:07;;;;;;;19.02;10.07;;;;;;;;;;5036529;28;20637;-51
2022/08/27 05:18:35;;;;;;;16.15;10.05;;;;;;;;;;5056126;28;20247;-55
2022/08/27 05:21:34;;;;;;;18.20;9.88;;;;;;;;;;5055378;28;20230;-55
2022/08/27 05:24:03;;;;;;;14.65;10.02;;;;;;;;;;5037367;28;20216;-56
2022/08/27 05:26:32;;;;;;;14.60;10.40;;;;;;;;;;5037031;28;20255;-50
2022/08/27 05:28:59;;;;;;;16.52;9.82;;;;;;;;;;5044882;28;20315;-52
2022/08/27 05:31:27;;;;;;;14.88;10.18;;;;;;;;;;5055268;28;20234;-56
2022/08/27 05:33:55;;;;;;;23.67;10.05;;;;;;;;;;5055864;28;20244;-52
2022/08/27 05:36:29;;;;;;;20.88;10.70;;;;;;;;;;5055801;28;20216;-49
2022/08/27 05:38:58;;;;;;;22.15;9.70;;;;;;;;;;5038135;28;20258;-56
2022/08/27 05:41:28;;;;;;;21.55;10.00;;;;;;;;;;5055178;28;20602;-54
2022/08/27 05:44:04;;;;;;;17.50;10.73;;;;;;;;;;5055375;28;20227;-54
2022/08/27 05:46:51;;;;;;;21.08;9.88;;;;;;;;;;5054504;28;20587;-53
2022/08/27 05:49:18;;;;;;;19.10;9.85;;;;;;;;;;5055176;28;20224;-51
2022/08/27 05:51:46;;;;;;;19.80;11.25;;;;;;;;;;5055038;28;20318;-57
2022/08/27 05:54:18;;;;;;;23.95;10.40;;;;;;;;;;5053849;28;20220;-58
2022/08/27 05:56:46;;;;;;;19.92;10.18;;;;;;;;;;5054974;28;20234;-58
2022/08/27 06:02:01;;;;;;;19.25;9.55;;;;;;;;;;5054165;28;20541;-58
2022/08/27 06:04:28;;;;;;;22.48;11.00;;;;;;;;;;5055120;28;20546;-53
2022/08/27 06:06:55;;;;;;;18.38;10.23;;;;;;;;;;5054882;28;20224;-58
2022/08/27 06:09:27;;;;;;;23.92;10.73;;;;;;;;;;5054928;28;20543;-55
2022/08/27 06:11:57;;;;;;;20.88;10.45;;;;;;;;;;5006317;28;20239;-58
2022/08/27 06:14:25;;;;;;;16.58;8.82;;;;;;;;;;5035252;28;20223;-58
2022/08/27 06:16:51;;;;;;;20.90;9.98;;;;;;;;;;5044640;28;20548;-58
2022/08/27 06:19:19;;;;;;;15.70;8.90;;;;;;;;;;5042981;28;20220;-58
2022/08/27 06:21:46;;;;;;;17.13;9.32;;;;;;;;;;5043844;28;20246;-58
2022/08/27 06:24:33;;;;;;;16.30;8.88;;;;;;;;;;5040469;28;20583;-58
2022/08/27 06:27:00;;;;;;;21.42;9.27;;;;;;;;;;5043274;28;20692;-58
2022/08/27 06:29:27;;;;;;;16.05;9.05;;;;;;;;;;5035813;28;20238;-58
2022/08/27 06:31:55;;;;;;;18.88;8.63;;;;;;;;;;5052180;28;20302;-58
2022/08/27 06:34:22;;;;;;;19.48;8.70;;;;;;;;;;5053663;28;20677;-59
2022/08/27 06:36:49;;;;;;;24.02;9.57;;;;;;;;;;5038929;28;20230;-58
2022/08/27 06:39:16;;;;;;;22.35;9.50;;;;;;;;;;5032987;28;20331;-58
2022/08/27 06:41:43;;;;;;;16.67;9.68;;;;;;;;;;5037616;28;20259;-58
2022/08/27 06:44:12;;;;;;;18.70;9.63;;;;;;;;;;5040933;28;20543;-57
2022/08/27 06:46:39;;;;;;;18.98;9.35;;;;;;;;;;5032085;28;20661;-59
2022/08/27 06:49:07;;;;;;;15.88;8.82;;;;;;;;;;5033037;28;20225;-58
2022/08/27 06:51:37;;;;;;;15.90;9.23;;;;;;;;;;5015275;28;20240;-58
2022/08/27 06:54:07;;;;;;;26.98;8.82;;;;;;;;;;5033934;28;20234;-58
2022/08/27 06:56:35;;;;;;;20.90;9.05;;;;;;;;;;5051139;28;20231;-58
2022/08/27 06:59:06;;;;;;;21.05;9.60;;;;;;;;;;5050881;28;20532;-58
2022/08/27 07:01:40;;;;;;;20.38;9.30;;;;;;;;;;5044203;28;20225;-58
2022/08/27 07:04:10;;;;;;;22.10;8.73;;;;;;;;;;5031940;28;20311;-58
2022/08/27 07:06:38;;;;;;;21.80;8.55;;;;;;;;;;5032572;28;20221;-58
2022/08/27 07:09:06;;;;;;;18.20;8.52;;;;;;;;;;5031332;28;20221;-59
2022/08/27 07:11:34;;;;;;;17.08;8.23;;;;;;;;;;5031315;28;20235;-58
2022/08/27 07:14:01;;;;;;;21.13;8.52;;;;;;;;;;5031795;28;20228;-58
2022/08/27 07:16:28;;;;;;;14.50;7.82;;;;;;;;;;5030593;28;20599;-58
2022/08/27 07:18:58;;;;;;;17.25;8.75;;;;;;;;;;5031939;28;20236;-59
2022/08/27 07:21:31;;;;;;;16.02;8.23;;;;;;;;;;5033090;28;20240;-59
2022/08/27 07:24:02;;;;;;;16.13;7.97;;;;;;;;;;5033645;28;20643;-58
2022/08/27 07:26:31;;;;;;;15.05;7.75;;;;;;;;;;5033922;28;20220;-60
2022/08/27 07:28:59;;;;;;;16.23;7.72;;;;;;;;;;5033723;28;20229;-58
2022/08/27 07:31:27;;;;;;;17.20;8.40;;;;;;;;;;5038584;28;20234;-58
2022/08/27 07:33:53;;;;;;;17.88;8.15;;;;;;;;;;5053999;28;20707;-58
2022/08/27 07:36:21;;;;;;;14.65;8.35;;;;;;;;;;5057421;28;20207;-59
2022/08/27 07:38:50;;;;;;;18.00;8.20;;;;;;;;;;5058317;28;20224;-58
2022/08/27 07:41:30;;;;;;;21.00;8.25;;;;;;;;;;5058152;28;20231;-58
2022/08/27 07:46:46;;;;;;;20.23;8.02;;;;;;;;;;5058201;28;20640;-59
2022/08/27 07:49:16;;;;;;;13.55;7.63;;;;;;;;;;5058425;28;20215;-59
2022/08/27 07:51:43;;;;;;;16.50;6.97;;;;;;;;;;5042947;28;20201;-59
2022/08/27 07:54:11;;;;;;;16.90;7.45;;;;;;;;;;5038302;28;20219;-59
2022/08/27 07:56:37;;;;;;;18.15;7.28;;;;;;;;;;5038271;28;20220;-59
2022/08/27 07:59:04;;;;;;;17.88;7.43;;;;;;;;;;5038199;28;20216;-59
2022/08/27 08:01:32;;;;;;;15.98;7.00;;;;;;;;;;5038307;28;20200;-58
2022/08/27 08:03:59;;;;;;;14.75;7.38;;;;;;;;;;5019060;28;20200;-58
2022/08/27 08:06:26;;;;;;;15.20;7.22;;;;;;;;;;5036953;28;20263;-59
2022/08/27 08:08:53;;;;;;;18.52;6.60;;;;;;;;;;5036509;28;20266;-58
2022/08/27 08:11:20;;;;;;;12.73;6.85;;;;;;;;;;5037363;28;20296;-58
2022/08/27 08:13:48;;;;;;;19.83;7.25;;;;;;;;;;5037439;28;20512;-58
2022/08/27 08:16:15;;;;;;;16.10;6.55;;;;;;;;;;5037128;28;20215;-59
2022/08/27 08:18:42;;;;;;;12.30;6.22;;;;;;;;;;5036359;28;20640;-58
2022/08/27 08:21:11;;;;;;;16.80;6.57;;;;;;;;;;5037362;28;20501;-58
2022/08/27 08:23:39;;;;;;;16.50;6.75;;;;;;;;;;5039506;28;20629;-56
2022/08/27 08:26:07;;;;;;;16.77;6.68;;;;;;;;;;5056264;28;20606;-56
2022/08/27 08:28:34;;;;;;;25.20;8.32;;;;;;;;;;5054086;28;20223;-55
2022/08/27 08:31:01;;;;;;;15.77;6.38;;;;;;;;;;5055898;28;20945;-53
2022/08/27 08:33:30;;;;;;;11.60;5.57;;;;;;;;;;5051989;28;20679;-57
2022/08/27 08:36:06;;;;;;;11.85;6.05;;;;;;;;;;5054374;28;20315;-57
2022/08/27 08:38:33;;;;;;;15.77;5.50;;;;;;;;;;5054106;28;20238;-58
2022/08/27 08:41:00;;;;;;;18.15;6.13;;;;;;;;;;5044536;28;20311;-51
2022/08/27 08:43:34;;;;;;;16.77;6.65;;;;;;;;;;5028774;28;20239;-60
2022/08/27 08:46:09;;;;;;;16.83;6.00;;;;;;;;;;5044658;28;20200;-63
2022/08/27 08:48:40;;;;;;;9.80;4.50;;;;;;;;;;5019282;28;20208;-59
2022/08/27 08:51:30;;;;;;;19.45;5.30;;;;;;;;;;5035894;28;20211;-58
2022/08/27 08:54:04;;;;;;;12.20;4.63;;;;;;;;;;5040393;28;20216;-55
2022/08/27 08:56:46;;;;;;;11.02;4.47;;;;;;;;;;5039314;28;20231;-58
2022/08/27 08:59:27;;;;;;;8.13;3.58;;;;;;;;;;5039400;28;20239;-56
2022/08/27 09:01:55;;;;;;;12.85;4.03;;;;;;;;;;5054484;28;20235;-54
2022/08/27 09:04:23;;;;;;;8.35;3.70;;;;;;;;;;5053560;28;20235;-57
2022/08/27 09:07:01;;;;;;;14.30;3.72;;;;;;;;;;5019593;28;20224;-52
2022/08/27 09:09:47;;;;;;;10.23;4.10;;;;;;;;;;5020461;28;20239;-55
2022/08/27 09:12:18;;;;;;;17.90;4.90;;;;;;;;;;5034859;28;20236;-56
2022/08/27 09:14:49;;;;;;;13.52;4.53;;;;;;;;;;5018312;28;20235;-57
2022/08/27 09:17:16;;;;;;;13.07;3.28;;;;;;;;;;5033803;28;20550;-53
2022/08/27 09:19:43;;;;;;;9.35;3.95;;;;;;;;;;5056668;28;20224;-57
2022/08/27 09:22:30;;;;;;;15.50;4.28;;;;;;;;;;5055122;28;20223;-50
2022/08/27 09:25:00;;;;;;;16.98;4.00;;;;;;;;;;5019404;28;20199;-54
2022/08/27 09:27:28;;;;;;;19.85;3.80;;;;;;;;;;5038636;28;20201;-49
2022/08/27 09:29:56;;;;;;;11.02;3.10;;;;;;;;;;5035336;28;20227;-49
2022/08/27 09:32:25;;;;;;;13.80;3.45;;;;;;;;;;5036301;28;20201;-56
2022/08/27 09:34:56;;;;;;;16.88;3.65;;;;;;;;;;5035158;28;20208;-52
2022/08/27 09:37:32;;;;;;;8.75;3.20;;;;;;;;;;5035955;28;20211;-54
2022/08/27 09:40:22;;;;;;;11.88;3.50;;;;;;;;;;5035785;28;20232;-57
2022/08/27 09:42:52;;;;;;;13.13;3.20;;;;;;;;;;5036707;28;20240;-57
2022/08/27 09:45:21;;;;;;;11.98;3.70;;;;;;;;;;5036387;28;20207;-51
2022/08/27 09:48:06;;;;;;;11.88;4.53;;;;;;;;;;5035720;28;20625;-56
2022/08/27 09:50:37;;;;;;;8.60;4.20;;;;;;;;;;5036224;28;20204;-55
2022/08/27 09:53:24;;;;;;;17.42;3.75;;;;;;;;;;5036181;28;20204;-52
2022/08/27 09:55:54;;;;;;;8.93;2.70;;;;;;;;;;5035635;28;20203;-55
2022/08/27 09:58:31;;;;;;;8.13;4.20;;;;;;;;;;5035700;28;20244;-56
2022/08/27 10:01:04;;;;;;;11.13;2.78;;;;;;;;;;5021619;28;20212;-49
2022/08/27 10:03:32;;;;;;;34.72;4.20;;;;;;;;;;5034992;28;20197;-52
2022/08/27 10:05:59;;;;;;;16.23;3.45;;;;;;;;;;5034534;28;20219;-56
2022/08/27 10:08:46;;;;;;;10.85;2.92;;;;;;;;;;5035620;28;20274;-58
2022/08/27 10:11:18;;;;;;;16.58;3.50;;;;;;;;;;5018633;28;20208;-59
2022/08/27 10:13:52;;;;;;;11.63;3.70;;;;;;;;;;5018862;28;20278;-63
2022/08/27 10:17:08;;;;;;;9.85;3.72;;;;;;;;;;5036570;28;20199;-63
2022/08/27 10:19:56;;;;;;;12.23;2.80;;;;;;;;;;4954906;29;20248;-58
2022/08/27 10:22:38;;;;;;;11.82;3.17;;;;;;;;;;5038154;28;20249;-59
2022/08/27 10:25:16;;;;;;;10.15;2.95;;;;;;;;;;5045614;28;20205;-59
2022/08/27 10:27:49;;;;;;;8.35;3.30;;;;;;;;;;5022587;28;20191;-59
2022/08/27 10:30:19;;;;;;;11.27;3.30;;;;;;;;;;5054666;28;20555;-59
2022/08/27 10:33:13;;;;;;;10.88;2.75;;;;;;;;;;5037491;28;20184;-58
2022/08/27 10:35:49;;;;;;;15.85;3.10;;;;;;;;;;5037372;28;20676;-59
2022/08/27 10:38:29;;;;;;;11.38;3.55;;;;;;;;;;5037411;28;20526;-58
2022/08/27 10:41:16;;;;;;;9.07;3.20;;;;;;;;;;5036908;28;20195;-59
2022/08/27 10:44:40;;;;;;;9.38;2.88;;;;;;;;;;5054572;28;20216;-58
2022/08/27 10:47:19;;;;;;;17.50;3.13;;;;;;;;;;4953824;29;20204;-58
2022/08/27 10:50:26;;;;;;;5.93;3.17;;;;;;;;;;4954724;29;20271;-59
2022/08/27 10:53:00;;;;;;;13.43;3.13;;;;;;;;;;5031689;28;20199;-58
2022/08/27 10:55:34;;;;;;;9.52;3.35;;;;;;;;;;5053857;28;20199;-59
2022/08/27 10:58:23;;;;;;;7.82;2.97;;;;;;;;;;5036637;28;20188;-60
2022/08/27 11:01:10;;;;;;;9.70;2.78;;;;;;;;;;5054251;28;20203;-59
2022/08/27 11:03:44;;;;;;;9.55;3.20;;;;;;;;;;5054213;28;20196;-55
2022/08/27 11:06:20;;;;;;;6.85;3.13;;;;;;;;;;5036948;28;20258;-56
2022/08/27 11:09:11;;;;;;;10.00;3.42;;;;;;;;;;5053593;28;20188;-53
2022/08/27 11:11:47;;;;;;;8.60;2.75;;;;;;;;;;5036629;28;20204;-59
2022/08/27 11:14:52;;;;;;;17.98;4.47;;;;;;;;;;5039241;28;20683;-60
2022/08/27 11:17:29;;;;;;;5.78;3.15;;;;;;;;;;5035816;28;20196;-59
2022/08/27 11:20:00;;;;;;;8.20;3.15;;;;;;;;;;5036513;28;20211;-59
2022/08/27 11:22:28;;;;;;;7.07;3.55;;;;;;;;;;5037005;28;20208;-59
2022/08/27 11:25:13;;;;;;;9.95;3.45;;;;;;;;;;5054560;28;20230;-58
2022/08/27 11:27:40;;;;;;;11.05;3.42;;;;;;;;;;5036998;28;20199;-59
2022/08/27 11:30:20;;;;;;;9.23;3.83;;;;;;;;;;5053497;28;20207;-58
2022/08/27 11:33:12;;;;;;;8.88;3.60;;;;;;;;;;5036896;28;20180;-57
2022/08/27 11:36:14;;;;;;;8.57;3.65;;;;;;;;;;5037263;28;20189;-59
2022/08/27 11:38:52;;;;;;;11.43;3.15;;;;;;;;;;5054209;28;20242;-59
2022/08/27 11:41:41;;;;;;;11.15;3.40;;;;;;;;;;5054028;28;20226;-60
2022/08/27 11:44:13;;;;;;;12.32;3.63;;;;;;;;;;5054292;28;20192;-59
2022/08/27 11:46:44;;;;;;;7.13;3.22;;;;;;;;;;5035971;28;20488;-58
2022/08/27 11:49:22;;;;;;;5.55;3.65;;;;;;;;;;5053440;28;20206;-59
2022/08/27 11:51:59;;;;;;;8.13;3.75;;;;;;;;;;5053757;28;20200;-60
2022/08/27 11:54:31;;;;;;;7.97;3.92;;;;;;;;;;5053202;28;20191;-58
2022/08/27 11:56:58;;;;;;;5.35;3.60;;;;;;;;;;5035731;28;20231;-57
2022/08/27 11:59:25;;;;;;;22.55;3.92;;;;;;;;;;5036786;28;20219;-49
2022/08/27 12:01:55;;;;;;;12.35;3.97;;;;;;;;;;5052968;28;20743;-54
2022/08/27 12:04:34;;;;;;;15.38;4.03;;;;;;;;;;5051534;28;20227;-58
2022/08/27 12:07:04;;;;;;;9.68;4.47;;;;;;;;;;5052713;28;20185;-58
2022/08/27 12:09:50;;;;;;;15.43;4.05;;;;;;;;;;5052215;28;20629;-57
2022/08/27 12:12:20;;;;;;;10.10;3.55;;;;;;;;;;5053113;28;20206;-58
2022/08/27 12:14:58;;;;;;;11.77;3.75;;;;;;;;;;5052571;28;20200;-57
2022/08/27 12:17:43;;;;;;;8.32;3.92;;;;;;;;;;5036781;28;20192;-56
2022/08/27 12:20:19;;;;;;;15.82;3.85;;;;;;;;;;5054016;28;20270;-56
2022/08/27 12:26:00;;;;;;;7.53;3.80;;;;;;;;;;5057549;28;20212;-58
2022/08/27 12:28:27;;;;;;;9.18;4.22;;;;;;;;;;5040404;28;20276;-58
2022/08/27 12:30:55;;;;;;;12.82;3.80;;;;;;;;;;5057230;28;20212;-55
2022/08/27 12:33:44;;;;;;;15.85;4.57;;;;;;;;;;5040504;28;20210;-48
2022/08/27 12:36:33;;;;;;;11.70;3.97;;;;;;;;;;5039094;28;20208;-50
2022/08/27 12:39:02;;;;;;;11.88;4.13;;;;;;;;;;5055768;28;20314;-54
2022/08/27 12:41:38;;;;;;;9.85;3.70;;;;;;;;;;5055383;28;20203;-51
2022/08/27 12:44:13;;;;;;;14.63;3.92;;;;;;;;;;5055136;28;20670;-55
2022/08/27 12:46:50;;;;;;;11.25;3.75;;;;;;;;;;5056342;28;20196;-56
2022/08/27 12:49:20;;;;;;;15.43;3.88;;;;;;;;;;5038695;28;20217;-54
2022/08/27 12:52:33;;;;;;;8.80;3.20;;;;;;;;;;5056878;28;20211;-50
2022/08/27 12:55:28;;;;;;;10.43;3.45;;;;;;;;;;5057400;28;20246;-54
2022/08/27 12:58:17;;;;;;;5.32;3.50;;;;;;;;;;5056940;28;20258;-49
2022/08/27 13:01:07;;;;;;;8.45;3.40;;;;;;;;;;5057431;28;20228;-57
2022/08/27 13:03:39;;;;;;;8.90;3.55;;;;;;;;;;5056933;28;20211;-54
2022/08/27 13:06:27;;;;;;;12.40;4.22;;;;;;;;;;5039832;28;20204;-53
2022/08/27 13:09:00;;;;;;;12.45;3.88;;;;;;;;;;5039636;28;20192;-56
2022/08/27 13:11:31;;;;;;;9.10;3.70;;;;;;;;;;5057074;28;20204;-52
2022/08/27 13:14:09;;;;;;;7.57;3.72;;;;;;;;;;5057436;28;20208;-50
2022/08/27 13:16:38;;;;;;;7.38;3.38;;;;;;;;;;5056591;28;20601;-49
2022/08/27 13:19:07;;;;;;;7.82;3.47;;;;;;;;;;5023062;28;20671;-49
2022/08/27 13:21:34;;;;;;;9.48;3.30;;;;;;;;;;5057002;28;20196;-55
2022/08/27 13:24:03;;;;;;;9.30;3.60;;;;;;;;;;5054158;28;20208;-54
2022/08/27 13:26:36;;;;;;;10.70;3.17;;;;;;;;;;5052177;28;20272;-51
2022/08/27 13:29:06;;;;;;;7.00;3.53;;;;;;;;;;5055953;28;20204;-55
2022/08/27 13:31:34;;;;;;;4.70;2.92;;;;;;;;;;5055006;28;20204;-58
2022/08/27 13:34:04;;;;;;;18.20;4.15;;;;;;;;;;5055681;28;20199;-59
2022/08/27 13:36:53;;;;;;;8.60;3.40;;;;;;;;;;5056066;28;20199;-59
2022/08/27 13:39:20;;;;;;;7.47;3.50;;;;;;;;;;5040155;28;20796;-57
2022/08/27 13:41:48;;;;;;;9.32;3.50;;;;;;;;;;5055173;28;20228;-58
2022/08/27 13:44:31;;;;;;;11.00;4.28;;;;;;;;;;5038829;28;20176;-59
2022/08/27 13:47:02;;;;;;;10.70;3.70;;;;;;;;;;5056160;28;20192;-58
2022/08/27 13:49:31;;;;;;;13.20;3.60;;;;;;;;;;5055624;28;20192;-57
2022/08/27 13:52:31;;;;;;;10.18;3.42;;;;;;;;;;5043385;28;20197;-58
2022/08/27 13:55:04;;;;;;;11.35;3.78;;;;;;;;;;5034972;28;20242;-58
2022/08/27 13:57:47;;;;;;;19.80;4.45;;;;;;;;;;5046298;28;20199;-58
2022/08/27 14:00:16;;;;;;;12.18;4.07;;;;;;;;;;5055216;28;20232;-58
2022/08/27 14:02:45;;;;;;;9.95;4.05;;;;;;;;;;5050426;28;20236;-57
2022/08/27 14:05:22;;;;;;;9.65;3.80;;;;;;;;;;5039114;28;20228;-58
2022/08/27 14:07:52;;;;;;;7.15;3.92;;;;;;;;;;5034799;28;20229;-58
2022/08/27 14:10:25;;;;;;;13.23;4.93;;;;;;;;;;5023534;28;20239;-58
2022/08/27 14:13:04;;;;;;;9.13;4.07;;;;;;;;;;5041708;28;20223;-57
2022/08/27 14:15:41;;;;;;;14.07;4.38;;;;;;;;;;5052635;28;20668;-57
2022/08/27 14:18:39;;;;;;;12.10;4.15;;;;;;;;;;5033294;28;20228;-58
2022/08/27 14:21:24;;;;;;;16.60;4.07;;;;;;;;;;5036896;28;20680;-58
2022/08/27 14:23:52;;;;;;;6.97;3.55;;;;;;;;;;5034418;28;20560;-58
2022/08/27 14:26:20;;;;;;;12.55;4.30;;;;;;;;;;5033789;28;20616;-58
2022/08/27 14:28:47;;;;;;;9.43;3.65;;;;;;;;;;5034434;28;20302;-57
2022/08/27 14:31:14;;;;;;;8.60;3.47;;;;;;;;;;5034266;28;20224;-57
2022/08/27 14:33:41;;;;;;;17.20;4.95;;;;;;;;;;5032017;28;20298;-58
2022/08/27 14:36:08;;;;;;;17.17;5.78;;;;;;;;;;5033006;28;20662;-58
2022/08/27 14:38:38;;;;;;;16.45;3.88;;;;;;;;;;5016980;28;20228;-57
2022/08/27 14:41:07;;;;;;;11.18;3.90;;;;;;;;;;5032817;28;20319;-58
2022/08/27 14:43:35;;;;;;;17.73;4.10;;;;;;;;;;5033341;28;20236;-58
2022/08/27 14:46:02;;;;;;;25.35;6.50;;;;;;;;;;5031703;28;20545;-57
2022/08/27 14:48:32;;;;;;;23.55;5.18;;;;;;;;;;5026287;28;20302;-58
2022/08/27 14:51:03;;;;;;;12.70;4.78;;;;;;;;;;5053491;28;20242;-58
2022/08/27 14:53:30;;;;;;;14.10;3.78;;;;;;;;;;5033794;28;20228;-57
2022/08/27 14:55:58;;;;;;;14.10;4.50;;;;;;;;;;5033866;28;20312;-56
2022/08/27 14:58:25;;;;;;;10.88;3.85;;;;;;;;;;5034238;28;20204;-57
2022/08/27 15:00:54;;;;;;;14.43;4.40;;;;;;;;;;5034088;28;20550;-58
2022/08/27 15:03:24;;;;;;;11.07;3.63;;;;;;;;;;5016872;28;20201;-57
2022/08/27 15:05:53;;;;;;;7.95;3.20;;;;;;;;;;5016521;28;20686;-57